KADW

Joint Base Andrews Airport

Camp Springs, Maryland, USA
METAR KADW 132356Z AUTO 09004KT 10SM OVC065 07/01 A3035 RMK AO2 SLP286 T00680013 10109 20068 52018 $
Observed Flight Rules
Dec-13 @ 23:56 UTC (an hour ago) Visual Flight Rules
Wind Visibility Clouds
90° at 4 knots 10 miles
  • Overcast at 6,500' AGL
Temperatures Readings
Current 7°C / 45°F
Dewpoint 1°C / 34°F
Humidity 66%
Altimeter 30.35" Hg
Pressure 1028.6 hPa
Elevation 86
METAR KADW 132356Z AUTO 09004KT 10SM OVC065 07/01 A3035 RMK AO2 SLP286 T00680013 10109 20068 52018 $
Observed Flight Rules
Dec-13 @ 23:56 UTC
(an hour ago)
VFR
Wind Visibility
90° at 4 knots 10 miles
Clouds
  • Overcast at 6,500' AGL
Temperature Dewpoint
7°C / 45°F 1°C / 34°F
Humidity Altimeter Pressure
66% 30.35" Hg 1028.6 hPa